Terminal Aerodrome Forecast
Issued by NWS Tampa Bay Area, FL

Home | Current Version | Previous Version | Text Only | Print | Product List | Glossary On
Versions: 1 2 3 4 5 6 7 8 9 10 11 12 13
203
FTUS42 KTBW 271306 AAA
TAFFMY
TAF AMD
KFMY 271306Z 2713/2812 14006KT P6SM SCT250
      TEMPO 2713/2715 4SM BR OVC003
     FM271600 18009KT P6SM FEW250
     FM272300 22008KT P6SM FEW250
     FM280200 19004KT P6SM FEW250
     FM280900 12004KT P6SM SCT250=

USA.gov is the U.S. government's official web portal to all federal, state and local government web resources and services.